Time;durP1;ratioP1;P1;durP2;ratioP2;P2;SDS_P1;SDS_P2;PMS_P1;PMS_P2;Temp;Humidity;BMP_temperature;BMP_pressure;BME280_temperature;BME280_humidity;BME280_pressure;Samples;Min_cycle;Max_cycle;Signal;HPM_P1;HPM_P2
2021/01/14 00:00:29;;;;;;;40.92;31.92;;;16.50;99.90;;;;;;5075167;28;20115;-40
2021/01/14 00:02:55;;;;;;;37.03;30.73;;;16.40;99.90;;;;;;5076724;28;20020;-40
2021/01/14 00:05:21;;;;;;;42.72;32.45;;;16.40;99.90;;;;;;5076601;28;20031;-39
2021/01/14 00:07:49;;;;;;;41.63;35.20;;;16.40;99.90;;;;;;5076490;28;20069;-40
2021/01/14 00:10:15;;;;;;;44.88;36.33;;;16.30;99.90;;;;;;5076526;28;20028;-41
2021/01/14 00:12:42;;;;;;;43.65;34.97;;;16.30;99.90;;;;;;5065600;28;20033;-40
2021/01/14 00:15:09;;;;;;;51.13;40.47;;;16.30;99.90;;;;;;5056606;28;20408;-40
2021/01/14 00:17:35;;;;;;;53.38;43.22;;;16.30;99.90;;;;;;5066310;28;20028;-40
2021/01/14 00:20:01;;;;;;;43.28;35.88;;;16.30;99.90;;;;;;5064401;28;20510;-41
2021/01/14 00:22:27;;;;;;;47.05;36.55;;;16.30;99.90;;;;;;5056464;28;20025;-40
2021/01/14 00:24:53;;;;;;;46.83;38.42;;;16.20;99.90;;;;;;5056286;28;20053;-40
2021/01/14 00:27:18;;;;;;;48.30;38.65;;;16.30;99.90;;;;;;5056186;28;20057;-40
2021/01/14 00:29:44;;;;;;;46.10;38.35;;;16.20;99.90;;;;;;5056184;28;20068;-40
2021/01/14 00:32:10;;;;;;;50.10;41.05;;;16.20;99.90;;;;;;5056061;28;20440;-40
2021/01/14 00:34:38;;;;;;;50.63;39.25;;;16.20;99.90;;;;;;5056043;28;20503;-40
2021/01/14 00:39:53;;;;;;;49.58;40.35;;;16.10;99.90;;;;;;5055999;28;20040;-40
2021/01/14 00:42:19;;;;;;;50.08;39.65;;;16.10;99.90;;;;;;5056142;28;20100;-41
2021/01/14 00:44:45;;;;;;;48.88;40.25;;;16.10;99.90;;;;;;5055964;28;20031;-40
2021/01/14 00:47:11;;;;;;;51.08;41.22;;;16.00;99.90;;;;;;5055858;28;20383;-40
2021/01/14 00:49:36;;;;;;;51.83;41.35;;;16.00;99.90;;;;;;5071216;28;20119;-40
2021/01/14 00:52:03;;;;;;;48.90;39.85;;;16.00;99.90;;;;;;5075867;28;20115;-40
2021/01/14 00:54:28;;;;;;;49.67;40.33;;;16.00;99.90;;;;;;5075259;28;20032;-41
2021/01/14 00:56:54;;;;;;;49.33;39.65;;;16.00;99.90;;;;;;5075275;28;20375;-40
2021/01/14 00:59:20;;;;;;;46.25;38.17;;;16.00;99.90;;;;;;5075446;28;20035;-40
2021/01/14 01:01:46;;;;;;;48.08;40.45;;;15.90;99.90;;;;;;5075745;28;20056;-40
2021/01/14 01:04:12;;;;;;;50.10;40.65;;;15.90;99.90;;;;;;5075499;28;20032;-39
2021/01/14 01:06:39;;;;;;;49.58;39.15;;;15.90;99.90;;;;;;5075415;28;20079;-39
2021/01/14 01:09:08;;;;;;;44.03;36.72;;;15.90;99.90;;;;;;5068973;28;20031;-41
2021/01/14 01:11:34;;;;;;;46.03;36.95;;;15.90;99.90;;;;;;5055927;28;20068;-42
2021/01/14 01:14:00;;;;;;;48.05;39.00;;;15.90;99.90;;;;;;5055310;28;20021;-39
2021/01/14 01:16:26;;;;;;;44.80;37.63;;;15.90;99.90;;;;;;5055252;28;20029;-40
2021/01/14 01:18:52;;;;;;;44.45;35.53;;;15.80;99.90;;;;;;5055333;28;20036;-40
2021/01/14 01:21:18;;;;;;;40.28;33.15;;;15.80;99.90;;;;;;5055223;28;20126;-40
2021/01/14 01:23:44;;;;;;;41.60;33.95;;;15.80;99.90;;;;;;5055169;28;20479;-40
2021/01/14 01:26:15;;;;;;;40.67;33.15;;;15.80;99.90;;;;;;5055347;28;20094;-39
2021/01/14 01:28:41;;;;;;;40.53;33.22;;;15.80;99.90;;;;;;5055290;28;20024;-40
2021/01/14 01:31:08;;;;;;;42.40;33.55;;;15.70;99.90;;;;;;5054283;28;20028;-40
2021/01/14 01:33:34;;;;;;;43.35;34.10;;;15.70;99.90;;;;;;5054372;28;20037;-41
2021/01/14 01:36:00;;;;;;;44.15;34.00;;;15.70;99.90;;;;;;5054034;28;20390;-40
2021/01/14 01:38:26;;;;;;;43.85;35.63;;;15.70;99.90;;;;;;5054300;28;20214;-40
2021/01/14 01:40:56;;;;;;;40.75;33.03;;;15.70;99.90;;;;;;5054138;28;20067;-40
2021/01/14 01:43:23;;;;;;;43.80;35.20;;;15.70;99.90;;;;;;5054020;28;20025;-40
2021/01/14 01:45:49;;;;;;;43.67;35.03;;;15.70;99.90;;;;;;5053961;28;20025;-40
2021/01/14 01:48:19;;;;;;;43.80;34.35;;;15.60;99.90;;;;;;5053773;28;20021;-40
2021/01/14 01:50:47;;;;;;;43.67;35.25;;;15.60;99.90;;;;;;5054180;28;20025;-40
2021/01/14 01:53:13;;;;;;;41.60;33.75;;;15.60;99.90;;;;;;5054000;28;20025;-40
2021/01/14 01:55:42;;;;;;;37.22;31.88;;;15.60;99.90;;;;;;5054938;28;20051;-40
2021/01/14 01:58:10;;;;;;;40.30;32.95;;;15.60;99.90;;;;;;5054599;28;20025;-40
2021/01/14 02:00:36;;;;;;;41.75;33.22;;;15.60;99.90;;;;;;5054414;28;20100;-40
2021/01/14 02:03:02;;;;;;;38.13;31.42;;;15.60;99.90;;;;;;5054288;28;20033;-40
2021/01/14 02:05:27;;;;;;;38.10;31.67;;;15.50;99.90;;;;;;5054409;28;20036;-40
2021/01/14 02:08:21;;;;;;;39.40;31.77;;;15.60;99.90;;;;;;5054392;28;20054;-40
2021/01/14 02:11:02;;;;;;;38.80;29.50;;;15.50;99.90;;;;;;5054369;28;20391;-40
2021/01/14 02:13:35;;;;;;;38.15;29.70;;;15.50;99.90;;;;;;5053955;28;20025;-40
2021/01/14 02:16:02;;;;;;;35.65;28.88;;;15.50;99.90;;;;;;5054057;28;20078;-41
2021/01/14 02:18:29;;;;;;;39.40;31.90;;;15.50;99.90;;;;;;5053944;28;20025;-40
2021/01/14 02:21:00;;;;;;;38.70;31.70;;;15.50;99.90;;;;;;5054180;28;20029;-40
2021/01/14 02:23:47;;;;;;;35.80;30.23;;;15.50;99.90;;;;;;5053880;28;20459;-40
2021/01/14 02:26:22;;;;;;;36.72;30.40;;;15.50;99.90;;;;;;5053861;28;20028;-40
2021/01/14 02:28:49;;;;;;;37.97;31.17;;;15.50;99.90;;;;;;5053907;28;20143;-40
2021/01/14 02:31:15;;;;;;;35.63;28.58;;;15.40;99.90;;;;;;5054060;28;20048;-41
2021/01/14 02:33:42;;;;;;;35.25;29.92;;;15.50;99.90;;;;;;5053806;28;20083;-40
2021/01/14 02:36:08;;;;;;;38.10;32.15;;;15.40;99.90;;;;;;5055794;28;20150;-40
2021/01/14 02:38:34;;;;;;;38.97;32.00;;;15.40;99.90;;;;;;5073804;28;20021;-39
2021/01/14 02:41:00;;;;;;;38.83;32.22;;;15.50;99.90;;;;;;5073883;28;20401;-40
2021/01/14 02:43:26;;;;;;;40.33;31.77;;;15.40;99.90;;;;;;5073419;28;20075;-40
2021/01/14 02:45:53;;;;;;;40.60;32.88;;;15.40;99.90;;;;;;5072927;28;20023;-40
2021/01/14 02:48:28;;;;;;;44.97;33.50;;;15.40;99.90;;;;;;5072888;28;20034;-40
2021/01/14 02:50:57;;;;;;;39.75;32.63;;;15.40;99.90;;;;;;5072829;28;20101;-40
2021/01/14 02:53:24;;;;;;;42.25;33.83;;;15.40;99.90;;;;;;5072799;28;20530;-40
2021/01/14 02:55:51;;;;;;;40.97;32.63;;;15.40;99.90;;;;;;5072878;28;20682;-41
2021/01/14 02:58:17;;;;;;;37.92;31.88;;;15.40;99.90;;;;;;5072852;28;20025;-40
2021/01/14 03:00:43;;;;;;;39.80;30.85;;;15.40;99.90;;;;;;5073236;28;20020;-39
2021/01/14 03:03:09;;;;;;;39.40;31.23;;;15.40;99.90;;;;;;5073204;28;20029;-39
2021/01/14 03:05:35;;;;;;;37.10;30.10;;;15.30;99.90;;;;;;5072507;28;20116;-38
2021/01/14 03:08:01;;;;;;;38.13;31.02;;;15.30;99.90;;;;;;5073420;28;20154;-39
2021/01/14 03:10:27;;;;;;;37.50;31.10;;;15.30;99.90;;;;;;5073529;28;20024;-39
2021/01/14 03:12:54;;;;;;;39.00;30.00;;;15.30;99.90;;;;;;5073407;28;20023;-39
2021/01/14 03:15:20;;;;;;;36.47;30.52;;;15.20;99.90;;;;;;5073319;28;20021;-39
2021/01/14 03:17:46;;;;;;;36.65;29.85;;;15.30;99.90;;;;;;5073624;28;20032;-39
2021/01/14 03:20:12;;;;;;;38.35;30.58;;;15.20;99.90;;;;;;5073333;28;20370;-39
2021/01/14 03:22:40;;;;;;;37.90;30.70;;;15.30;99.90;;;;;;5073446;28;20154;-39
2021/01/14 03:25:11;;;;;;;35.70;29.10;;;15.30;99.90;;;;;;5073215;28;20033;-40
2021/01/14 03:27:42;;;;;;;38.80;30.83;;;15.30;99.90;;;;;;5073268;28;20111;-39
2021/01/14 03:30:10;;;;;;;36.35;29.70;;;15.20;99.90;;;;;;5072195;28;20094;-40
2021/01/14 03:32:36;;;;;;;35.40;29.45;;;15.20;99.90;;;;;;5073062;28;20044;-40
2021/01/14 03:35:05;;;;;;;37.13;29.85;;;15.20;99.90;;;;;;5073066;28;20119;-40
2021/01/14 03:37:31;;;;;;;35.47;28.60;;;15.20;99.90;;;;;;5073144;28;20021;-40
2021/01/14 03:39:57;;;;;;;36.08;29.65;;;15.20;99.90;;;;;;5073142;28;20028;-40
2021/01/14 03:42:23;;;;;;;37.97;28.20;;;15.20;99.90;;;;;;5073328;28;20713;-40
2021/01/14 03:44:49;;;;;;;35.55;28.83;;;15.20;99.90;;;;;;5073227;28;20028;-40
2021/01/14 03:47:16;;;;;;;37.78;28.73;;;15.20;99.90;;;;;;5073194;28;20094;-40
2021/01/14 03:49:42;;;;;;;35.13;27.85;;;15.20;99.90;;;;;;5073032;28;20028;-40
2021/01/14 03:52:12;;;;;;;32.67;26.88;;;15.10;99.90;;;;;;5072993;28;20028;-40
2021/01/14 03:54:38;;;;;;;36.38;29.05;;;15.10;99.90;;;;;;5073288;28;20024;-40
2021/01/14 03:57:05;;;;;;;36.22;26.88;;;15.10;99.90;;;;;;5072939;28;20013;-40
2021/01/14 03:59:31;;;;;;;33.33;26.48;;;15.10;99.90;;;;;;5073001;28;20110;-40
2021/01/14 04:02:06;;;;;;;34.75;26.40;;;15.10;99.90;;;;;;5072904;28;20024;-40
2021/01/14 04:04:36;;;;;;;35.17;26.45;;;15.10;99.90;;;;;;5073091;28;20116;-40
2021/01/14 04:07:02;;;;;;;33.65;27.08;;;15.10;99.90;;;;;;5073334;28;20028;-40
2021/01/14 04:09:28;;;;;;;34.33;27.00;;;15.10;99.90;;;;;;5073015;28;20024;-40
2021/01/14 04:11:54;;;;;;;33.80;27.25;;;15.10;99.90;;;;;;5071715;28;20390;-40
2021/01/14 04:14:22;;;;;;;31.90;25.33;;;15.10;99.90;;;;;;5072643;28;20025;-40
2021/01/14 04:16:49;;;;;;;30.63;25.15;;;15.10;99.90;;;;;;5075546;28;20024;-40
2021/01/14 04:19:15;;;;;;;32.28;24.88;;;15.10;99.90;;;;;;5076272;28;20540;-40
2021/01/14 04:21:41;;;;;;;32.78;24.13;;;15.00;99.90;;;;;;5076106;28;20020;-40
2021/01/14 04:24:07;;;;;;;30.25;23.13;;;15.00;99.90;;;;;;5074449;28;20115;-40
2021/01/14 04:26:33;;;;;;;28.92;23.83;;;15.00;99.90;;;;;;5076069;28;20032;-41
2021/01/14 04:28:59;;;;;;;27.92;22.83;;;15.00;99.90;;;;;;5076006;28;20106;-41
2021/01/14 04:31:25;;;;;;;26.92;22.30;;;15.00;99.90;;;;;;5075990;28;20060;-40
2021/01/14 04:33:51;;;;;;;27.88;21.13;;;15.00;99.90;;;;;;5076014;28;20024;-40
2021/01/14 04:36:18;;;;;;;25.27;20.77;;;15.00;99.90;;;;;;5076233;28;20074;-40
2021/01/14 04:38:44;;;;;;;26.27;20.83;;;15.00;99.90;;;;;;5075906;28;20046;-40
2021/01/14 04:41:10;;;;;;;25.55;19.10;;;15.00;99.90;;;;;;5075772;28;20508;-40
2021/01/14 04:43:36;;;;;;;25.55;20.33;;;15.00;99.90;;;;;;5075744;28;20091;-40
2021/01/14 04:46:07;;;;;;;26.35;19.92;;;15.00;99.90;;;;;;5075915;28;20104;-40
2021/01/14 04:48:39;;;;;;;23.38;19.10;;;15.00;99.90;;;;;;5075693;28;20056;-40
2021/01/14 04:51:10;;;;;;;22.50;18.50;;;15.00;99.90;;;;;;5075137;28;20532;-42
2021/01/14 04:53:38;;;;;;;21.92;18.05;;;15.00;99.90;;;;;;5075483;28;20567;-40
2021/01/14 04:56:06;;;;;;;22.85;18.38;;;14.90;99.90;;;;;;5075668;28;20035;-41
2021/01/14 04:58:36;;;;;;;23.42;18.52;;;14.90;99.90;;;;;;5075772;28;20017;-40
2021/01/14 05:01:15;;;;;;;24.35;18.73;;;14.90;99.90;;;;;;5075482;28;20020;-40
2021/01/14 05:03:45;;;;;;;20.50;16.92;;;14.90;99.90;;;;;;5075421;28;20123;-40
2021/01/14 05:06:19;;;;;;;21.25;17.33;;;14.90;99.90;;;;;;5073829;28;20027;-40
2021/01/14 05:08:46;;;;;;;23.38;16.50;;;15.00;99.90;;;;;;5055158;28;20024;-41
2021/01/14 05:11:16;;;;;;;20.05;16.92;;;14.90;99.90;;;;;;5055252;28;20025;-41
2021/01/14 05:13:44;;;;;;;22.10;16.92;;;14.80;99.90;;;;;;5055129;28;20028;-41
2021/01/14 05:16:10;;;;;;;21.00;16.52;;;14.80;99.90;;;;;;5055142;28;20021;-41
2021/01/14 05:18:36;;;;;;;22.17;17.27;;;14.80;99.90;;;;;;5054930;28;20063;-41
2021/01/14 05:21:02;;;;;;;17.88;15.10;;;14.90;99.90;;;;;;5055116;28;20409;-41
2021/01/14 05:23:31;;;;;;;20.58;15.93;;;14.80;99.90;;;;;;5056239;28;20025;-41
2021/01/14 05:25:58;;;;;;;20.05;15.55;;;14.80;99.90;;;;;;5075167;28;20072;-41
2021/01/14 05:28:26;;;;;;;19.87;15.73;;;14.80;99.90;;;;;;5072580;28;20073;-40
2021/01/14 05:30:55;;;;;;;19.15;14.88;;;14.80;99.90;;;;;;5074245;28;20069;-40
2021/01/14 05:33:23;;;;;;;20.23;15.23;;;14.80;99.90;;;;;;5074221;28;20031;-41
2021/01/14 05:35:51;;;;;;;20.13;15.60;;;14.80;99.90;;;;;;5074337;28;20497;-38
2021/01/14 05:38:24;;;;;;;17.95;14.65;;;14.80;99.90;;;;;;5075509;28;20041;-38
2021/01/14 05:43:52;;;;;;;19.27;14.75;;;14.80;99.90;;;;;;5074427;28;20117;-39
2021/01/14 05:46:24;;;;;;;18.98;14.82;;;14.80;99.90;;;;;;5074803;28;20040;-39
2021/01/14 05:48:52;;;;;;;21.67;15.05;;;14.70;99.90;;;;;;5074236;28;20028;-39
2021/01/14 05:51:18;;;;;;;;;;;14.80;99.90;;;;;;5073706;28;20430;-39
2021/01/14 05:54:04;;;;;;;21.33;16.20;;;14.80;99.90;;;;;;5074385;28;19912;-39
2021/01/14 05:56:40;;;;;;;19.48;14.82;;;14.80;99.90;;;;;;5074732;28;20261;-39
2021/01/14 05:59:11;;;;;;;18.15;14.65;;;14.80;99.90;;;;;;5074488;28;20028;-39
2021/01/14 06:01:51;;;;;;;18.95;14.40;;;14.80;99.90;;;;;;5074185;28;20048;-39
2021/01/14 06:04:19;;;;;;;17.98;14.73;;;14.80;99.90;;;;;;5073388;28;20039;-39
2021/01/14 06:06:46;;;;;;;20.42;16.40;;;14.80;99.90;;;;;;5074000;28;20378;-39
2021/01/14 06:09:13;;;;;;;18.85;14.95;;;14.70;99.90;;;;;;5074569;28;20036;-39
2021/01/14 06:11:39;;;;;;;20.52;15.27;;;14.70;99.90;;;;;;5074078;28;20025;-39
2021/01/14 06:14:05;;;;;;;19.88;15.57;;;14.80;99.90;;;;;;5071880;28;20032;-39
2021/01/14 06:16:48;;;;;;;19.40;14.95;;;14.80;99.90;;;;;;5073822;28;20070;-39
2021/01/14 06:19:14;;;;;;;17.85;15.00;;;14.70;99.90;;;;;;5072168;28;20467;-39
2021/01/14 06:21:47;;;;;;;18.08;14.95;;;14.70;99.90;;;;;;5073645;28;20086;-39
2021/01/14 06:24:28;;;;;;;19.13;15.05;;;14.70;99.90;;;;;;5069538;28;20107;-40
2021/01/14 06:27:12;;;;;;;17.90;14.85;;;14.70;99.90;;;;;;5072391;28;20020;-39
2021/01/14 06:29:44;;;;;;;18.45;15.20;;;14.70;99.90;;;;;;5071777;28;20466;-39
2021/01/14 06:32:17;;;;;;;20.05;15.98;;;14.70;99.90;;;;;;5073260;28;20052;-39
2021/01/14 06:34:45;;;;;;;20.65;16.05;;;14.70;99.90;;;;;;5073510;28;20024;-39
2021/01/14 06:37:17;;;;;;;21.30;17.30;;;14.70;99.90;;;;;;5073046;28;20048;-39
2021/01/14 06:39:45;;;;;;;19.23;15.98;;;14.70;99.90;;;;;;5072572;28;20020;-39
2021/01/14 06:42:27;;;;;;;19.58;15.50;;;14.70;99.90;;;;;;5072988;28;20069;-39
2021/01/14 06:44:59;;;;;;;20.08;15.85;;;14.70;99.90;;;;;;5073129;28;20467;-39
2021/01/14 06:47:32;;;;;;;19.98;16.15;;;14.70;99.90;;;;;;5073622;28;20037;-39
2021/01/14 06:50:06;;;;;;;20.15;15.90;;;14.70;99.90;;;;;;5072726;28;20028;-41
2021/01/14 06:52:36;;;;;;;20.50;15.48;;;14.70;99.90;;;;;;5073088;28;20025;-38
2021/01/14 06:55:02;;;;;;;20.27;14.40;;;14.60;99.90;;;;;;5072945;28;20028;-39
2021/01/14 06:57:35;;;;;;;16.95;14.05;;;14.60;99.90;;;;;;5072442;28;20025;-39
2021/01/14 07:00:05;;;;;;;19.88;15.88;;;14.60;99.90;;;;;;5073141;28;20031;-40
2021/01/14 07:02:34;;;;;;;17.40;14.25;;;14.60;99.90;;;;;;5072676;28;20157;-42
2021/01/14 07:05:05;;;;;;;16.42;13.73;;;14.60;99.90;;;;;;5070182;28;20483;-42
2021/01/14 07:07:47;;;;;;;21.00;14.27;;;14.70;99.90;;;;;;5073661;28;20032;-42
2021/01/14 07:10:14;;;;;;;15.88;12.48;;;14.70;99.90;;;;;;5078963;28;20017;-41
2021/01/14 07:12:43;;;;;;;18.33;13.07;;;14.70;99.90;;;;;;5070211;28;20024;-42
2021/01/14 07:15:09;;;;;;;17.92;13.43;;;14.70;99.90;;;;;;5072732;28;20085;-42
2021/01/14 07:17:40;;;;;;;18.42;14.20;;;14.70;99.90;;;;;;5069005;28;20040;-42
2021/01/14 07:20:13;;;;;;;18.35;13.88;;;14.60;99.90;;;;;;5073048;28;20040;-42
2021/01/14 07:22:50;;;;;;;19.13;16.50;;;14.70;99.90;;;;;;5072718;28;20081;-40
2021/01/14 07:25:18;;;;;;;137.80;104.88;;;14.60;99.90;;;;;;5072849;28;20482;-40
2021/01/14 07:27:44;;;;;;;134.18;82.35;;;14.60;99.90;;;;;;5066028;28;20082;-39
2021/01/14 07:30:11;;;;;;;99.35;78.65;;;14.60;99.90;;;;;;5066181;28;20032;-39
2021/01/14 07:33:04;;;;;;;95.32;72.93;;;14.60;99.90;;;;;;5072289;28;20049;-39
2021/01/14 07:35:34;;;;;;;83.97;64.57;;;14.60;99.90;;;;;;5072259;28;20041;-39
2021/01/14 07:38:00;;;;;;;79.97;62.92;;;14.70;99.90;;;;;;5072687;28;20017;-39
2021/01/14 07:40:30;;;;;;;78.40;61.17;;;14.70;99.90;;;;;;5072322;28;20031;-39
2021/01/14 07:42:59;;;;;;;70.30;56.08;;;14.70;99.90;;;;;;5072398;28;20025;-39
2021/01/14 07:45:25;;;;;;;276.10;209.75;;;14.70;99.90;;;;;;5072313;28;20036;-39
2021/01/14 07:47:51;;;;;;;178.43;142.13;;;14.70;99.90;;;;;;5072224;28;20351;-39
2021/01/14 07:50:27;;;;;;;141.88;109.32;;;14.60;99.90;;;;;;5071580;28;20394;-39
2021/01/14 07:53:12;;;;;;;136.48;108.28;;;14.70;99.90;;;;;;5075386;28;20029;-39
2021/01/14 07:55:38;;;;;;;126.57;98.63;;;14.70;99.90;;;;;;5064167;28;20017;-39
2021/01/14 07:58:10;;;;;;;116.40;91.32;;;14.80;99.90;;;;;;5075132;28;20032;-39
2021/01/14 08:00:36;;;;;;;115.47;91.47;;;14.80;99.90;;;;;;5074653;28;20021;-40
2021/01/14 08:03:14;;;;;;;112.50;86.78;;;14.80;99.90;;;;;;5074860;28;20021;-39
2021/01/14 08:05:57;;;;;;;102.72;81.43;;;14.80;99.90;;;;;;5076238;28;20454;-39
2021/01/14 08:08:38;;;;;;;94.85;75.28;;;14.80;99.90;;;;;;5076012;28;20108;-39
2021/01/14 08:11:25;;;;;;;94.25;74.32;;;14.90;99.90;;;;;;5075554;28;20426;-39
2021/01/14 08:14:11;;;;;;;88.40;71.55;;;14.90;99.90;;;;;;5075563;28;20031;-40
2021/01/14 08:16:56;;;;;;;81.03;63.58;;;14.90;99.90;;;;;;5075806;28;20140;-39
2021/01/14 08:19:23;;;;;;;77.03;60.65;;;15.00;99.90;;;;;;5075936;28;20017;-39
2021/01/14 08:21:58;;;;;;;76.80;60.28;;;14.90;99.90;;;;;;5075695;28;20474;-39
2021/01/14 08:24:33;;;;;;;74.32;57.50;;;15.00;99.90;;;;;;5076109;28;20036;-39
2021/01/14 08:27:26;;;;;;;66.65;52.22;;;15.00;99.90;;;;;;5075931;28;20037;-39
2021/01/14 08:30:12;;;;;;;65.07;50.83;;;15.00;99.90;;;;;;5071502;28;20041;-39
2021/01/14 08:33:05;;;;;;;57.90;48.45;;;15.00;99.90;;;;;;5074807;28;20474;-39
2021/01/14 08:35:41;;;;;;;58.65;44.80;;;15.10;99.90;;;;;;5072442;28;20033;-39
2021/01/14 08:38:10;;;;;;;58.60;44.88;;;15.20;99.90;;;;;;5073397;28;20493;-39
2021/01/14 08:40:37;;;;;;;54.40;40.95;;;15.20;99.90;;;;;;5075070;28;20024;-39
2021/01/14 08:43:03;;;;;;;54.13;41.15;;;15.20;99.90;;;;;;5074986;28;20154;-40
2021/01/14 08:45:36;;;;;;;50.65;39.45;;;15.20;99.90;;;;;;5074622;28;20112;-40
2021/01/14 08:48:10;;;;;;;48.25;38.78;;;15.20;99.90;;;;;;5074753;28;20032;-40
2021/01/14 08:50:40;;;;;;;44.25;34.25;;;15.20;99.90;;;;;;5073358;28;20460;-39
2021/01/14 08:53:11;;;;;;;43.88;33.45;;;15.30;99.90;;;;;;5074921;28;20017;-39
2021/01/14 08:55:39;;;;;;;43.80;34.25;;;15.20;99.90;;;;;;5074998;28;20550;-40
2021/01/14 08:58:07;;;;;;;;;;;15.30;99.90;;;;;;5075776;28;20020;-39
2021/01/14 09:00:34;;;;;;;45.65;32.92;;;15.40;99.90;;;;;;5075245;28;19915;-39
2021/01/14 09:03:00;;;;;;;39.05;30.10;;;15.40;99.90;;;;;;5075210;28;20024;-39
2021/01/14 09:05:28;;;;;;;38.25;29.52;;;15.40;99.90;;;;;;5075133;28;20748;-40
2021/01/14 09:08:09;;;;;;;38.83;29.67;;;15.40;99.90;;;;;;5074136;28;20070;-40
2021/01/14 09:10:54;;;;;;;34.78;28.35;;;15.40;99.90;;;;;;5075278;28;20111;-39
2021/01/14 09:13:26;;;;;;;33.05;26.20;;;15.50;99.90;;;;;;5074965;28;20025;-39
2021/01/14 09:15:54;;;;;;;41.30;31.05;;;15.50;99.90;;;;;;5074430;28;20040;-41
2021/01/14 09:18:36;;;;;;;25.27;14.55;;;15.50;99.90;;;;;;5074955;28;20091;-32
2021/01/14 09:21:03;;;;;;;15.85;12.30;;;15.40;99.90;;;;;;5075060;28;20031;-34
2021/01/14 09:23:34;;;;;;;18.80;14.00;;;15.40;99.90;;;;;;5074755;28;20375;-34
2021/01/14 09:26:20;;;;;;;15.50;12.27;;;15.40;99.90;;;;;;5074736;28;20467;-34
2021/01/14 09:28:53;;;;;;;13.60;9.15;;;15.30;99.90;;;;;;5074421;28;20035;-34
2021/01/14 09:31:22;;;;;;;9.48;6.47;;;15.40;99.90;;;;;;5074762;28;20390;-34
2021/01/14 09:33:49;;;;;;;6.80;5.63;;;15.40;99.90;;;;;;5074376;28;20036;-34
2021/01/14 09:36:22;;;;;;;8.95;5.30;;;15.50;99.90;;;;;;5075037;28;20367;-34
2021/01/14 09:38:56;;;;;;;6.57;4.38;;;15.40;99.90;;;;;;5074438;28;20029;-34
2021/01/14 09:41:29;;;;;;;6.07;3.85;;;15.60;99.90;;;;;;5074749;28;20021;-34
2021/01/14 09:44:03;;;;;;;4.97;3.47;;;15.50;99.90;;;;;;5074701;28;20067;-32
2021/01/14 09:46:40;;;;;;;7.47;4.57;;;15.60;99.90;;;;;;5074692;28;20395;-32
2021/01/14 09:49:14;;;;;;;5.78;3.72;;;15.50;99.90;;;;;;5072705;28;20027;-32
2021/01/14 09:51:43;;;;;;;4.90;3.53;;;15.50;99.90;;;;;;5074198;28;20033;-31
2021/01/14 09:54:10;;;;;;;8.85;3.83;;;15.40;99.90;;;;;;5074308;28;20390;-32
2021/01/14 09:56:38;;;;;;;6.43;3.33;;;15.50;99.90;;;;;;5074608;28;20023;-32
2021/01/14 09:59:15;;;;;;;;;;;15.60;99.90;;;;;;5074507;28;20029;-32
2021/01/14 10:01:54;;;;;;;8.23;3.72;;;15.60;99.90;;;;;;5074071;28;20007;-32
2021/01/14 10:04:26;;;;;;;7.32;4.22;;;15.70;99.90;;;;;;5074181;28;20095;-32
2021/01/14 10:07:02;;;;;;;6.57;3.72;;;15.70;99.90;;;;;;5074272;28;20032;-32
2021/01/14 10:09:28;;;;;;;8.60;3.95;;;15.70;99.90;;;;;;5074059;28;20025;-33
2021/01/14 10:11:55;;;;;;;7.00;3.80;;;15.80;99.90;;;;;;5074039;28;20021;-32
2021/01/14 10:14:22;;;;;;;10.88;4.03;;;15.80;99.90;;;;;;5073699;28;20348;-33
2021/01/14 10:16:49;;;;;;;8.20;3.33;;;15.80;99.90;;;;;;5074070;28;20047;-33
2021/01/14 10:19:18;;;;;;;7.38;4.07;;;15.80;99.90;;;;;;5074094;28;20253;-33
2021/01/14 10:21:45;;;;;;;13.90;4.40;;;15.90;99.90;;;;;;5073661;28;20073;-34
2021/01/14 10:24:25;;;;;;;9.13;4.10;;;15.90;99.90;;;;;;5073901;28;20751;-35
2021/01/14 10:26:52;;;;;;;7.90;3.95;;;16.00;99.90;;;;;;5074016;28;20032;-34
2021/01/14 10:29:38;;;;;;;9.90;4.82;;;16.00;99.90;;;;;;5073532;28;21254;-34
2021/01/14 10:32:15;;;;;;;6.45;4.20;;;16.00;99.90;;;;;;5073587;28;20045;-34
2021/01/14 10:34:49;;;;;;;5.87;4.40;;;16.10;99.90;;;;;;5073622;28;20024;-34
2021/01/14 10:37:25;;;;;;;10.10;4.15;;;16.10;99.90;;;;;;5073581;28;20031;-34
2021/01/14 10:39:55;;;;;;;8.85;4.05;;;16.20;99.90;;;;;;5073003;28;20486;-34
2021/01/14 10:42:31;;;;;;;5.80;4.00;;;16.30;99.90;;;;;;5072828;28;20040;-35
2021/01/14 10:45:08;;;;;;;6.05;3.70;;;16.40;99.90;;;;;;5073517;28;20063;-34
2021/01/14 10:47:36;;;;;;;5.80;3.35;;;16.50;99.90;;;;;;5073414;28;20024;-33
2021/01/14 10:50:17;;;;;;;6.85;3.03;;;16.50;99.90;;;;;;5073404;28;20076;-34
2021/01/14 10:52:59;;;;;;;9.48;3.80;;;16.50;99.90;;;;;;5073231;28;20073;-33
2021/01/14 10:55:29;;;;;;;6.60;2.80;;;16.70;99.90;;;;;;5071156;28;20645;-33
2021/01/14 10:57:56;;;;;;;6.13;3.20;;;16.70;99.90;;;;;;5062006;28;20029;-34
2021/01/14 11:00:36;;;;;;;5.63;3.63;;;16.80;99.90;;;;;;5053356;28;20428;-33
2021/01/14 11:03:10;;;;;;;9.50;3.00;;;16.90;99.90;;;;;;5057722;28;20036;-32
2021/01/14 11:05:49;;;;;;;30.98;4.38;;;16.90;99.90;;;;;;5057211;28;20489;-32
2021/01/14 11:08:23;;;;;;;12.30;3.20;;;17.00;99.90;;;;;;5073118;28;20036;-31
2021/01/14 11:11:13;;;;;;;12.55;3.28;;;17.10;99.90;;;;;;5073031;28;20108;-32
2021/01/14 11:13:49;;;;;;;7.35;3.63;;;17.20;99.90;;;;;;5072092;28;20027;-32
2021/01/14 11:16:20;;;;;;;7.05;4.03;;;17.30;99.90;;;;;;5072670;28;20020;-32
2021/01/14 11:18:48;;;;;;;8.40;3.95;;;17.40;99.90;;;;;;5072899;28;20062;-32
2021/01/14 11:21:15;;;;;;;7.45;4.60;;;17.50;99.90;;;;;;5072893;28;20047;-32
2021/01/14 11:23:41;;;;;;;6.55;4.25;;;17.60;99.90;;;;;;5059198;28;20029;-32
2021/01/14 11:26:08;;;;;;;6.65;4.20;;;17.70;99.90;;;;;;5068888;28;20034;-31
2021/01/14 11:28:38;;;;;;;8.93;5.00;;;17.70;99.90;;;;;;5077081;28;20025;-32
2021/01/14 11:31:10;;;;;;;8.25;5.30;;;17.80;99.90;;;;;;5077575;28;20036;-32
2021/01/14 11:33:36;;;;;;;8.95;4.95;;;17.80;99.90;;;;;;5076930;28;20364;-32
2021/01/14 11:36:02;;;;;;;11.13;5.50;;;18.00;99.90;;;;;;5076627;28;20028;-32
2021/01/14 11:38:28;;;;;;;8.93;5.53;;;18.20;99.90;;;;;;5074966;28;20470;-32
2021/01/14 11:40:54;;;;;;;33.30;6.03;;;18.40;99.90;;;;;;5076859;28;20065;-32
2021/01/14 11:43:20;;;;;;;16.65;6.28;;;18.50;99.90;;;;;;5076674;28;20371;-32
2021/01/14 11:45:46;;;;;;;12.30;5.95;;;18.60;99.90;;;;;;5076824;28;20032;-31
2021/01/14 11:48:12;;;;;;;8.88;6.50;;;18.70;99.90;;;;;;5076711;28;20028;-31
2021/01/14 11:50:38;;;;;;;9.77;5.40;;;18.70;99.90;;;;;;5076849;28;20033;-31
2021/01/14 11:53:04;;;;;;;9.18;5.40;;;18.80;99.90;;;;;;5077032;28;20362;-32
2021/01/14 11:55:30;;;;;;;11.30;5.93;;;18.80;99.90;;;;;;5076802;28;20032;-31
2021/01/14 11:57:55;;;;;;;8.05;5.30;;;18.80;99.90;;;;;;5076603;28;20050;-31
2021/01/14 12:00:21;;;;;;;7.72;5.10;;;18.80;99.90;;;;;;5076402;28;20025;-31
2021/01/14 12:02:47;;;;;;;8.48;5.50;;;18.80;99.90;;;;;;5076412;28;20024;-32
2021/01/14 12:05:13;;;;;;;11.93;4.80;;;18.70;99.90;;;;;;5076082;28;20043;-32
2021/01/14 12:07:39;;;;;;;8.02;5.13;;;18.70;99.90;;;;;;5076339;28;20025;-32
2021/01/14 12:10:06;;;;;;;9.07;5.57;;;18.70;99.90;;;;;;5076361;28;20378;-32
2021/01/14 12:12:33;;;;;;;10.83;4.90;;;18.80;99.90;;;;;;5075023;28;20028;-32
2021/01/14 12:14:59;;;;;;;10.85;4.80;;;18.90;99.90;;;;;;5076047;28;20322;-32
2021/01/14 12:17:25;;;;;;;5.20;4.07;;;18.90;99.90;;;;;;5076444;28;20028;-32
2021/01/14 12:19:51;;;;;;;7.82;4.97;;;19.00;99.90;;;;;;5075749;28;20373;-32
2021/01/14 12:22:17;;;;;;;6.97;4.70;;;19.20;99.90;;;;;;5075994;28;20024;-32
2021/01/14 12:24:43;;;;;;;8.30;4.25;;;19.50;99.90;;;;;;5076034;28;20052;-33
2021/01/14 12:27:08;;;;;;;6.57;4.30;;;19.80;99.90;;;;;;5076204;28;20109;-33
2021/01/14 12:29:37;;;;;;;22.27;4.97;;;20.10;99.90;;;;;;5076132;28;20174;-34
2021/01/14 12:32:04;;;;;;;9.10;4.88;;;20.30;99.90;;;;;;5075833;28;20048;-33
2021/01/14 12:34:31;;;;;;;18.27;5.57;;;20.60;99.90;;;;;;5075176;28;20028;-34
2021/01/14 12:36:57;;;;;;;6.72;5.38;;;21.10;99.90;;;;;;5074174;28;20275;-33
2021/01/14 12:39:23;;;;;;;8.70;4.78;;;21.70;99.90;;;;;;5075560;28;20470;-33
2021/01/14 12:41:50;;;;;;;9.63;6.75;;;22.40;99.90;;;;;;5069021;28;20017;-34
2021/01/14 12:44:16;;;;;;;8.38;6.85;;;23.20;99.90;;;;;;5055601;28;20025;-33
2021/01/14 12:46:45;;;;;;;11.90;6.35;;;24.30;99.90;;;;;;5066221;28;20035;-33
2021/01/14 12:49:12;;;;;;;10.60;6.32;;;24.70;99.90;;;;;;5068237;28;20374;-33
2021/01/14 12:51:38;;;;;;;8.23;5.43;;;24.40;99.90;;;;;;5075216;28;20394;-33